sensor_id;sensor_type;location;lat;lon;timestamp;P1;durP1;ratioP1;P2;durP2;ratioP2
15466;SDS011;7834;49.452;11.056;2022-11-11T00:00:05;12.40;;;8.13;;
15466;SDS011;7834;49.452;11.056;2022-11-11T00:02:31;11.57;;;8.05;;
15466;SDS011;7834;49.452;11.056;2022-11-11T00:04:57;13.25;;;8.77;;
15466;SDS011;7834;49.452;11.056;2022-11-11T00:07:23;12.57;;;8.65;;
15466;SDS011;7834;49.452;11.056;2022-11-11T00:09:49;14.17;;;8.70;;
15466;SDS011;7834;49.452;11.056;2022-11-11T00:12:15;12.98;;;9.13;;
15466;SDS011;7834;49.452;11.056;2022-11-11T00:14:41;12.98;;;9.13;;
15466;SDS011;7834;49.452;11.056;2022-11-11T00:17:09;12.07;;;8.95;;
15466;SDS011;7834;49.452;11.056;2022-11-11T00:19:55;12.60;;;9.10;;
15466;SDS011;7834;49.452;11.056;2022-11-11T00:22:40;12.15;;;8.82;;
15466;SDS011;7834;49.452;11.056;2022-11-11T00:25:24;10.43;;;8.32;;
15466;SDS011;7834;49.452;11.056;2022-11-11T00:27:50;11.63;;;9.00;;
15466;SDS011;7834;49.452;11.056;2022-11-11T00:30:16;13.17;;;8.37;;
15466;SDS011;7834;49.452;11.056;2022-11-11T00:32:42;13.10;;;8.60;;
15466;SDS011;7834;49.452;11.056;2022-11-11T00:35:09;11.47;;;8.63;;
15466;SDS011;7834;49.452;11.056;2022-11-11T00:37:53;12.37;;;8.50;;
15466;SDS011;7834;49.452;11.056;2022-11-11T00:40:19;15.30;;;9.02;;
15466;SDS011;7834;49.452;11.056;2022-11-11T00:42:45;10.82;;;8.52;;
15466;SDS011;7834;49.452;11.056;2022-11-11T00:45:11;12.68;;;8.50;;
15466;SDS011;7834;49.452;11.056;2022-11-11T00:47:37;12.52;;;8.50;;
15466;SDS011;7834;49.452;11.056;2022-11-11T00:50:26;13.27;;;8.88;;
15466;SDS011;7834;49.452;11.056;2022-11-11T00:53:11;12.13;;;9.00;;
15466;SDS011;7834;49.452;11.056;2022-11-11T00:55:38;11.68;;;8.23;;
15466;SDS011;7834;49.452;11.056;2022-11-11T00:58:04;13.27;;;8.35;;
15466;SDS011;7834;49.452;11.056;2022-11-11T01:00:30;11.13;;;8.50;;
15466;SDS011;7834;49.452;11.056;2022-11-11T01:02:57;13.13;;;8.82;;
15466;SDS011;7834;49.452;11.056;2022-11-11T01:05:23;11.23;;;8.30;;
15466;SDS011;7834;49.452;11.056;2022-11-11T01:07:49;11.57;;;8.43;;
15466;SDS011;7834;49.452;11.056;2022-11-11T01:10:15;11.40;;;8.60;;
15466;SDS011;7834;49.452;11.056;2022-11-11T01:13:01;12.70;;;8.90;;
15466;SDS011;7834;49.452;11.056;2022-11-11T01:15:38;12.40;;;8.30;;
15466;SDS011;7834;49.452;11.056;2022-11-11T01:18:04;14.00;;;8.50;;
15466;SDS011;7834;49.452;11.056;2022-11-11T01:20:30;11.98;;;8.75;;
15466;SDS011;7834;49.452;11.056;2022-11-11T01:22:56;13.27;;;9.32;;
15466;SDS011;7834;49.452;11.056;2022-11-11T01:25:22;11.48;;;9.15;;
15466;SDS011;7834;49.452;11.056;2022-11-11T01:27:48;14.65;;;9.50;;
15466;SDS011;7834;49.452;11.056;2022-11-11T01:30:14;14.25;;;9.93;;
15466;SDS011;7834;49.452;11.056;2022-11-11T01:32:40;12.60;;;9.50;;
15466;SDS011;7834;49.452;11.056;2022-11-11T01:35:06;11.73;;;9.20;;
15466;SDS011;7834;49.452;11.056;2022-11-11T01:37:33;11.43;;;8.23;;
15466;SDS011;7834;49.452;11.056;2022-11-11T01:39:59;11.57;;;8.73;;
15466;SDS011;7834;49.452;11.056;2022-11-11T01:42:25;10.23;;;8.23;;
15466;SDS011;7834;49.452;11.056;2022-11-11T01:44:51;12.25;;;9.07;;
15466;SDS011;7834;49.452;11.056;2022-11-11T01:47:17;13.90;;;8.23;;
15466;SDS011;7834;49.452;11.056;2022-11-11T01:57:09;11.80;;;9.10;;
15466;SDS011;7834;49.452;11.056;2022-11-11T01:59:36;11.52;;;9.15;;
15466;SDS011;7834;49.452;11.056;2022-11-11T02:02:07;14.88;;;9.27;;
15466;SDS011;7834;49.452;11.056;2022-11-11T02:04:35;12.70;;;9.13;;
15466;SDS011;7834;49.452;11.056;2022-11-11T02:07:20;13.43;;;8.90;;
15466;SDS011;7834;49.452;11.056;2022-11-11T02:09:47;11.07;;;8.65;;
15466;SDS011;7834;49.452;11.056;2022-11-11T02:12:13;12.18;;;8.75;;
15466;SDS011;7834;49.452;11.056;2022-11-11T02:14:58;9.98;;;8.55;;
15466;SDS011;7834;49.452;11.056;2022-11-11T02:17:25;11.55;;;8.23;;
15466;SDS011;7834;49.452;11.056;2022-11-11T02:22:21;10.77;;;8.38;;
15466;SDS011;7834;49.452;11.056;2022-11-11T02:24:48;12.10;;;8.10;;
15466;SDS011;7834;49.452;11.056;2022-11-11T02:27:14;13.73;;;9.00;;
15466;SDS011;7834;49.452;11.056;2022-11-11T02:29:41;10.77;;;8.30;;
15466;SDS011;7834;49.452;11.056;2022-11-11T02:32:08;16.02;;;8.60;;
15466;SDS011;7834;49.452;11.056;2022-11-11T02:34:34;12.23;;;8.90;;
15466;SDS011;7834;49.452;11.056;2022-11-11T02:37:00;12.73;;;9.05;;
15466;SDS011;7834;49.452;11.056;2022-11-11T02:39:27;12.32;;;7.88;;
15466;SDS011;7834;49.452;11.056;2022-11-11T02:41:54;13.43;;;8.15;;
15466;SDS011;7834;49.452;11.056;2022-11-11T02:44:26;12.35;;;7.70;;
15466;SDS011;7834;49.452;11.056;2022-11-11T02:46:52;13.53;;;7.87;;
15466;SDS011;7834;49.452;11.056;2022-11-11T02:49:18;15.10;;;9.35;;
15466;SDS011;7834;49.452;11.056;2022-11-11T02:51:44;12.77;;;9.10;;
15466;SDS011;7834;49.452;11.056;2022-11-11T02:54:12;15.38;;;8.80;;
15466;SDS011;7834;49.452;11.056;2022-11-11T02:56:38;12.23;;;8.40;;
15466;SDS011;7834;49.452;11.056;2022-11-11T02:59:22;14.88;;;8.57;;
15466;SDS011;7834;49.452;11.056;2022-11-11T03:01:48;13.10;;;8.48;;
15466;SDS011;7834;49.452;11.056;2022-11-11T03:04:14;11.68;;;8.63;;
15466;SDS011;7834;49.452;11.056;2022-11-11T03:06:40;13.93;;;8.38;;
15466;SDS011;7834;49.452;11.056;2022-11-11T03:09:06;12.82;;;8.38;;
15466;SDS011;7834;49.452;11.056;2022-11-11T03:11:32;11.85;;;8.48;;
15466;SDS011;7834;49.452;11.056;2022-11-11T03:14:02;13.85;;;8.52;;
15466;SDS011;7834;49.452;11.056;2022-11-11T03:16:28;13.82;;;8.60;;
15466;SDS011;7834;49.452;11.056;2022-11-11T03:19:12;13.57;;;8.52;;
15466;SDS011;7834;49.452;11.056;2022-11-11T03:21:38;12.63;;;8.77;;
15466;SDS011;7834;49.452;11.056;2022-11-11T03:24:05;11.50;;;8.43;;
15466;SDS011;7834;49.452;11.056;2022-11-11T03:26:31;14.30;;;9.20;;
15466;SDS011;7834;49.452;11.056;2022-11-11T03:28:57;14.60;;;8.90;;
15466;SDS011;7834;49.452;11.056;2022-11-11T03:31:23;13.85;;;8.60;;
15466;SDS011;7834;49.452;11.056;2022-11-11T03:33:49;12.07;;;8.73;;
15466;SDS011;7834;49.452;11.056;2022-11-11T03:36:15;11.83;;;8.50;;
15466;SDS011;7834;49.452;11.056;2022-11-11T03:38:41;13.37;;;8.67;;
15466;SDS011;7834;49.452;11.056;2022-11-11T03:41:07;11.38;;;8.80;;
15466;SDS011;7834;49.452;11.056;2022-11-11T03:43:33;10.07;;;7.95;;
15466;SDS011;7834;49.452;11.056;2022-11-11T03:46:00;12.10;;;8.30;;
15466;SDS011;7834;49.452;11.056;2022-11-11T03:48:27;10.57;;;7.65;;
15466;SDS011;7834;49.452;11.056;2022-11-11T03:50:53;11.63;;;7.97;;
15466;SDS011;7834;49.452;11.056;2022-11-11T03:53:20;12.85;;;7.90;;
15466;SDS011;7834;49.452;11.056;2022-11-11T03:55:46;13.07;;;7.90;;
15466;SDS011;7834;49.452;11.056;2022-11-11T03:58:13;12.98;;;8.20;;
15466;SDS011;7834;49.452;11.056;2022-11-11T04:00:39;11.43;;;7.97;;
15466;SDS011;7834;49.452;11.056;2022-11-11T04:03:09;12.45;;;8.25;;
15466;SDS011;7834;49.452;11.056;2022-11-11T04:05:54;9.38;;;7.65;;
15466;SDS011;7834;49.452;11.056;2022-11-11T04:08:26;12.32;;;8.07;;
15466;SDS011;7834;49.452;11.056;2022-11-11T04:11:12;11.02;;;7.97;;
15466;SDS011;7834;49.452;11.056;2022-11-11T04:13:39;11.52;;;7.63;;
15466;SDS011;7834;49.452;11.056;2022-11-11T04:16:25;12.05;;;7.88;;
15466;SDS011;7834;49.452;11.056;2022-11-11T04:18:51;11.57;;;7.82;;
15466;SDS011;7834;49.452;11.056;2022-11-11T04:21:35;11.90;;;7.80;;
15466;SDS011;7834;49.452;11.056;2022-11-11T04:24:17;12.50;;;7.50;;
15466;SDS011;7834;49.452;11.056;2022-11-11T04:27:03;9.93;;;7.43;;
15466;SDS011;7834;49.452;11.056;2022-11-11T04:29:29;10.55;;;7.38;;
15466;SDS011;7834;49.452;11.056;2022-11-11T04:31:56;11.30;;;7.45;;
15466;SDS011;7834;49.452;11.056;2022-11-11T04:34:42;11.07;;;7.53;;
15466;SDS011;7834;49.452;11.056;2022-11-11T04:37:08;8.82;;;7.30;;
15466;SDS011;7834;49.452;11.056;2022-11-11T04:39:35;9.82;;;7.35;;
15466;SDS011;7834;49.452;11.056;2022-11-11T04:42:19;10.68;;;7.47;;
15466;SDS011;7834;49.452;11.056;2022-11-11T04:44:46;11.37;;;7.43;;
15466;SDS011;7834;49.452;11.056;2022-11-11T04:47:30;11.18;;;7.78;;
15466;SDS011;7834;49.452;11.056;2022-11-11T04:49:56;12.23;;;7.63;;
15466;SDS011;7834;49.452;11.056;2022-11-11T04:52:22;10.40;;;7.40;;
15466;SDS011;7834;49.452;11.056;2022-11-11T04:54:55;10.83;;;7.20;;
15466;SDS011;7834;49.452;11.056;2022-11-11T04:57:46;13.30;;;7.80;;
15466;SDS011;7834;49.452;11.056;2022-11-11T05:00:13;12.43;;;8.00;;
15466;SDS011;7834;49.452;11.056;2022-11-11T05:02:40;10.90;;;7.43;;
15466;SDS011;7834;49.452;11.056;2022-11-11T05:05:25;13.33;;;7.50;;
15466;SDS011;7834;49.452;11.056;2022-11-11T05:07:51;13.13;;;7.82;;
15466;SDS011;7834;49.452;11.056;2022-11-11T05:10:36;11.48;;;7.72;;
15466;SDS011;7834;49.452;11.056;2022-11-11T05:13:02;11.75;;;7.10;;
15466;SDS011;7834;49.452;11.056;2022-11-11T05:15:47;11.50;;;7.55;;
15466;SDS011;7834;49.452;11.056;2022-11-11T05:18:32;11.40;;;7.28;;
15466;SDS011;7834;49.452;11.056;2022-11-11T05:21:18;9.45;;;7.10;;
15466;SDS011;7834;49.452;11.056;2022-11-11T05:23:45;10.88;;;7.25;;
15466;SDS011;7834;49.452;11.056;2022-11-11T05:26:30;11.25;;;7.20;;
15466;SDS011;7834;49.452;11.056;2022-11-11T05:28:56;11.32;;;7.00;;
15466;SDS011;7834;49.452;11.056;2022-11-11T05:31:22;10.77;;;7.00;;
15466;SDS011;7834;49.452;11.056;2022-11-11T05:33:48;10.27;;;7.30;;
15466;SDS011;7834;49.452;11.056;2022-11-11T05:36:14;9.40;;;6.77;;
15466;SDS011;7834;49.452;11.056;2022-11-11T05:38:40;8.50;;;6.70;;
15466;SDS011;7834;49.452;11.056;2022-11-11T05:41:07;10.73;;;6.80;;
15466;SDS011;7834;49.452;11.056;2022-11-11T05:43:33;10.30;;;6.57;;
15466;SDS011;7834;49.452;11.056;2022-11-11T05:45:59;10.25;;;7.38;;
15466;SDS011;7834;49.452;11.056;2022-11-11T05:48:25;9.95;;;7.15;;
15466;SDS011;7834;49.452;11.056;2022-11-11T05:50:51;10.95;;;6.95;;
15466;SDS011;7834;49.452;11.056;2022-11-11T05:53:17;11.35;;;6.55;;
15466;SDS011;7834;49.452;11.056;2022-11-11T05:55:49;9.82;;;6.97;;
15466;SDS011;7834;49.452;11.056;2022-11-11T05:58:16;9.02;;;6.85;;
15466;SDS011;7834;49.452;11.056;2022-11-11T06:00:42;11.27;;;7.10;;
15466;SDS011;7834;49.452;11.056;2022-11-11T06:03:08;9.25;;;6.95;;
15466;SDS011;7834;49.452;11.056;2022-11-11T06:05:37;9.68;;;7.28;;
15466;SDS011;7834;49.452;11.056;2022-11-11T06:08:03;11.60;;;7.25;;
15466;SDS011;7834;49.452;11.056;2022-11-11T06:10:29;12.27;;;7.25;;
15466;SDS011;7834;49.452;11.056;2022-11-11T06:12:58;10.75;;;7.03;;
15466;SDS011;7834;49.452;11.056;2022-11-11T06:15:34;11.30;;;7.20;;
15466;SDS011;7834;49.452;11.056;2022-11-11T06:18:00;12.27;;;7.00;;
15466;SDS011;7834;49.452;11.056;2022-11-11T06:20:27;11.77;;;7.10;;
15466;SDS011;7834;49.452;11.056;2022-11-11T06:22:53;10.38;;;6.80;;
15466;SDS011;7834;49.452;11.056;2022-11-11T06:25:25;12.77;;;7.40;;
15466;SDS011;7834;49.452;11.056;2022-11-11T06:28:10;9.75;;;6.75;;
15466;SDS011;7834;49.452;11.056;2022-11-11T06:30:37;11.37;;;7.43;;
15466;SDS011;7834;49.452;11.056;2022-11-11T06:33:03;11.52;;;7.68;;
15466;SDS011;7834;49.452;11.056;2022-11-11T06:35:31;11.63;;;7.57;;
15466;SDS011;7834;49.452;11.056;2022-11-11T06:37:57;11.23;;;7.60;;
15466;SDS011;7834;49.452;11.056;2022-11-11T06:40:23;11.80;;;8.10;;
15466;SDS011;7834;49.452;11.056;2022-11-11T06:42:49;11.18;;;7.93;;
15466;SDS011;7834;49.452;11.056;2022-11-11T06:45:15;11.30;;;7.93;;
15466;SDS011;7834;49.452;11.056;2022-11-11T06:47:41;14.98;;;9.55;;
15466;SDS011;7834;49.452;11.056;2022-11-11T06:50:08;15.50;;;9.13;;
15466;SDS011;7834;49.452;11.056;2022-11-11T06:52:34;14.95;;;10.15;;
15466;SDS011;7834;49.452;11.056;2022-11-11T06:55:00;14.68;;;9.38;;
15466;SDS011;7834;49.452;11.056;2022-11-11T06:57:26;13.30;;;9.38;;
15466;SDS011;7834;49.452;11.056;2022-11-11T06:59:52;15.02;;;9.88;;
15466;SDS011;7834;49.452;11.056;2022-11-11T07:02:18;14.70;;;9.80;;
15466;SDS011;7834;49.452;11.056;2022-11-11T07:04:44;14.63;;;10.18;;
15466;SDS011;7834;49.452;11.056;2022-11-11T07:07:10;14.20;;;9.82;;
15466;SDS011;7834;49.452;11.056;2022-11-11T07:09:36;15.20;;;10.33;;
15466;SDS011;7834;49.452;11.056;2022-11-11T07:12:02;15.80;;;10.52;;
15466;SDS011;7834;49.452;11.056;2022-11-11T07:14:28;14.95;;;10.43;;
15466;SDS011;7834;49.452;11.056;2022-11-11T07:16:54;14.52;;;10.35;;
15466;SDS011;7834;49.452;11.056;2022-11-11T07:19:20;15.90;;;10.23;;
15466;SDS011;7834;49.452;11.056;2022-11-11T07:21:46;14.20;;;9.75;;
15466;SDS011;7834;49.452;11.056;2022-11-11T07:24:12;12.02;;;9.20;;
15466;SDS011;7834;49.452;11.056;2022-11-11T07:26:38;14.80;;;10.07;;
15466;SDS011;7834;49.452;11.056;2022-11-11T07:29:04;20.00;;;10.55;;
15466;SDS011;7834;49.452;11.056;2022-11-11T07:31:30;17.63;;;10.07;;
15466;SDS011;7834;49.452;11.056;2022-11-11T07:33:56;14.52;;;9.38;;
15466;SDS011;7834;49.452;11.056;2022-11-11T07:36:22;12.57;;;9.20;;
15466;SDS011;7834;49.452;11.056;2022-11-11T07:38:48;16.00;;;9.60;;
15466;SDS011;7834;49.452;11.056;2022-11-11T07:41:14;13.63;;;9.52;;
15466;SDS011;7834;49.452;11.056;2022-11-11T07:43:40;13.45;;;9.57;;
15466;SDS011;7834;49.452;11.056;2022-11-11T07:46:06;14.57;;;10.18;;
15466;SDS011;7834;49.452;11.056;2022-11-11T07:48:32;15.25;;;9.85;;
15466;SDS011;7834;49.452;11.056;2022-11-11T07:50:58;13.55;;;10.07;;
15466;SDS011;7834;49.452;11.056;2022-11-11T07:53:24;13.18;;;9.50;;
15466;SDS011;7834;49.452;11.056;2022-11-11T07:55:52;13.67;;;9.63;;
15466;SDS011;7834;49.452;11.056;2022-11-11T07:58:18;12.27;;;9.70;;
15466;SDS011;7834;49.452;11.056;2022-11-11T08:00:44;13.80;;;9.20;;
15466;SDS011;7834;49.452;11.056;2022-11-11T08:03:10;13.90;;;9.38;;
15466;SDS011;7834;49.452;11.056;2022-11-11T08:05:36;12.23;;;9.13;;
15466;SDS011;7834;49.452;11.056;2022-11-11T08:08:06;13.17;;;9.30;;
15466;SDS011;7834;49.452;11.056;2022-11-11T08:10:32;14.68;;;9.65;;
15466;SDS011;7834;49.452;11.056;2022-11-11T08:12:58;14.90;;;9.68;;
15466;SDS011;7834;49.452;11.056;2022-11-11T08:15:43;13.93;;;9.50;;
15466;SDS011;7834;49.452;11.056;2022-11-11T08:18:09;13.13;;;10.13;;
15466;SDS011;7834;49.452;11.056;2022-11-11T08:20:35;11.88;;;9.70;;
15466;SDS011;7834;49.452;11.056;2022-11-11T08:23:01;13.52;;;9.25;;
15466;SDS011;7834;49.452;11.056;2022-11-11T08:25:34;12.35;;;9.13;;
15466;SDS011;7834;49.452;11.056;2022-11-11T08:28:04;11.50;;;9.20;;
15466;SDS011;7834;49.452;11.056;2022-11-11T08:30:30;14.38;;;9.93;;
15466;SDS011;7834;49.452;11.056;2022-11-11T08:33:00;12.07;;;9.65;;
15466;SDS011;7834;49.452;11.056;2022-11-11T08:35:26;14.05;;;9.75;;
15466;SDS011;7834;49.452;11.056;2022-11-11T08:37:53;12.77;;;9.57;;
15466;SDS011;7834;49.452;11.056;2022-11-11T08:40:19;10.60;;;8.90;;
15466;SDS011;7834;49.452;11.056;2022-11-11T08:42:45;11.18;;;8.85;;
15466;SDS011;7834;49.452;11.056;2022-11-11T08:45:11;10.73;;;9.25;;
15466;SDS011;7834;49.452;11.056;2022-11-11T08:47:38;13.27;;;9.23;;
15466;SDS011;7834;49.452;11.056;2022-11-11T08:50:04;11.32;;;9.15;;
15466;SDS011;7834;49.452;11.056;2022-11-11T08:52:31;12.60;;;9.13;;
15466;SDS011;7834;49.452;11.056;2022-11-11T08:54:57;11.43;;;10.02;;
15466;SDS011;7834;49.452;11.056;2022-11-11T08:57:26;11.15;;;9.73;;
15466;SDS011;7834;49.452;11.056;2022-11-11T08:59:52;12.37;;;8.97;;
15466;SDS011;7834;49.452;11.056;2022-11-11T09:02:18;10.15;;;8.63;;
15466;SDS011;7834;49.452;11.056;2022-11-11T09:04:44;13.18;;;9.18;;
15466;SDS011;7834;49.452;11.056;2022-11-11T09:07:11;13.07;;;9.30;;
15466;SDS011;7834;49.452;11.056;2022-11-11T09:09:37;15.13;;;9.00;;
15466;SDS011;7834;49.452;11.056;2022-11-11T09:12:03;11.23;;;8.67;;
15466;SDS011;7834;49.452;11.056;2022-11-11T09:14:29;10.07;;;8.80;;
15466;SDS011;7834;49.452;11.056;2022-11-11T09:16:55;11.15;;;8.70;;
15466;SDS011;7834;49.452;11.056;2022-11-11T09:19:21;12.70;;;9.38;;
15466;SDS011;7834;49.452;11.056;2022-11-11T09:21:49;11.10;;;9.88;;
15466;SDS011;7834;49.452;11.056;2022-11-11T09:24:16;12.25;;;9.57;;
15466;SDS011;7834;49.452;11.056;2022-11-11T09:26:42;14.40;;;10.15;;
15466;SDS011;7834;49.452;11.056;2022-11-11T09:29:08;10.10;;;9.10;;
15466;SDS011;7834;49.452;11.056;2022-11-11T09:31:34;10.63;;;9.53;;
15466;SDS011;7834;49.452;11.056;2022-11-11T09:34:00;11.32;;;9.13;;
15466;SDS011;7834;49.452;11.056;2022-11-11T09:36:26;11.05;;;8.68;;
15466;SDS011;7834;49.452;11.056;2022-11-11T09:38:53;10.55;;;9.20;;
15466;SDS011;7834;49.452;11.056;2022-11-11T09:44:03;12.63;;;8.77;;
15466;SDS011;7834;49.452;11.056;2022-11-11T09:46:49;11.48;;;9.30;;
15466;SDS011;7834;49.452;11.056;2022-11-11T09:54:42;12.38;;;8.77;;
15466;SDS011;7834;49.452;11.056;2022-11-11T09:57:12;11.25;;;8.50;;
15466;SDS011;7834;49.452;11.056;2022-11-11T09:59:44;10.65;;;9.05;;
15466;SDS011;7834;49.452;11.056;2022-11-11T10:02:28;11.65;;;9.00;;
15466;SDS011;7834;49.452;11.056;2022-11-11T10:07:24;9.65;;;8.25;;
15466;SDS011;7834;49.452;11.056;2022-11-11T10:09:55;9.60;;;8.55;;
15466;SDS011;7834;49.452;11.056;2022-11-11T10:12:22;11.57;;;8.40;;
15466;SDS011;7834;49.452;11.056;2022-11-11T10:14:53;10.63;;;8.63;;
15466;SDS011;7834;49.452;11.056;2022-11-11T10:17:30;23.55;;;10.52;;
15466;SDS011;7834;49.452;11.056;2022-11-11T10:22:32;18.70;;;12.83;;
15466;SDS011;7834;49.452;11.056;2022-11-11T10:27:28;8.38;;;7.10;;
15466;SDS011;7834;49.452;11.056;2022-11-11T10:29:55;11.03;;;6.93;;
15466;SDS011;7834;49.452;11.056;2022-11-11T10:34:47;7.88;;;6.50;;
15466;SDS011;7834;49.452;11.056;2022-11-11T10:37:24;8.38;;;6.78;;
15466;SDS011;7834;49.452;11.056;2022-11-11T10:42:37;7.72;;;5.75;;
15466;SDS011;7834;49.452;11.056;2022-11-11T10:45:07;10.65;;;6.60;;
15466;SDS011;7834;49.452;11.056;2022-11-11T10:50:18;14.55;;;10.02;;
15466;SDS011;7834;49.452;11.056;2022-11-11T10:52:49;8.43;;;6.70;;
15466;SDS011;7834;49.452;11.056;2022-11-11T10:55:18;9.15;;;6.28;;
15466;SDS011;7834;49.452;11.056;2022-11-11T11:00:14;8.23;;;5.70;;
15466;SDS011;7834;49.452;11.056;2022-11-11T11:05:13;9.55;;;5.97;;
15466;SDS011;7834;49.452;11.056;2022-11-11T11:07:42;7.18;;;6.20;;
15466;SDS011;7834;49.452;11.056;2022-11-11T11:10:17;9.73;;;6.93;;
15466;SDS011;7834;49.452;11.056;2022-11-11T11:12:51;9.87;;;6.47;;
15466;SDS011;7834;49.452;11.056;2022-11-11T11:15:22;7.30;;;5.68;;
15466;SDS011;7834;49.452;11.056;2022-11-11T11:17:59;9.30;;;5.72;;
15466;SDS011;7834;49.452;11.056;2022-11-11T11:20:27;9.93;;;6.57;;
15466;SDS011;7834;49.452;11.056;2022-11-11T11:22:54;8.88;;;6.15;;
15466;SDS011;7834;49.452;11.056;2022-11-11T11:25:26;8.63;;;5.68;;
15466;SDS011;7834;49.452;11.056;2022-11-11T11:28:03;7.35;;;5.35;;
15466;SDS011;7834;49.452;11.056;2022-11-11T11:30:30;8.02;;;5.20;;
15466;SDS011;7834;49.452;11.056;2022-11-11T11:33:06;8.27;;;5.40;;
15466;SDS011;7834;49.452;11.056;2022-11-11T11:35:36;8.73;;;5.25;;
15466;SDS011;7834;49.452;11.056;2022-11-11T11:38:03;6.55;;;4.32;;
15466;SDS011;7834;49.452;11.056;2022-11-11T11:40:46;7.07;;;4.13;;
15466;SDS011;7834;49.452;11.056;2022-11-11T11:43:32;5.35;;;4.00;;
15466;SDS011;7834;49.452;11.056;2022-11-11T11:46:02;8.07;;;5.00;;
15466;SDS011;7834;49.452;11.056;2022-11-11T11:51:07;6.45;;;4.00;;
15466;SDS011;7834;49.452;11.056;2022-11-11T11:53:52;6.35;;;3.72;;
15466;SDS011;7834;49.452;11.056;2022-11-11T11:56:33;4.55;;;3.40;;
15466;SDS011;7834;49.452;11.056;2022-11-11T12:04:06;5.93;;;3.35;;
15466;SDS011;7834;49.452;11.056;2022-11-11T12:09:16;5.95;;;3.83;;
15466;SDS011;7834;49.452;11.056;2022-11-11T12:25:26;5.60;;;3.63;;
15466;SDS011;7834;49.452;11.056;2022-11-11T12:30:23;6.68;;;3.47;;
15466;SDS011;7834;49.452;11.056;2022-11-11T12:33:01;8.55;;;3.90;;
15466;SDS011;7834;49.452;11.056;2022-11-11T12:38:01;8.50;;;3.80;;
15466;SDS011;7834;49.452;11.056;2022-11-11T12:40:44;6.68;;;3.47;;
15466;SDS011;7834;49.452;11.056;2022-11-11T12:43:26;4.10;;;3.42;;
15466;SDS011;7834;49.452;11.056;2022-11-11T12:46:00;7.38;;;3.60;;
15466;SDS011;7834;49.452;11.056;2022-11-11T12:48:32;6.65;;;3.55;;
15466;SDS011;7834;49.452;11.056;2022-11-11T12:51:11;5.82;;;3.30;;
15466;SDS011;7834;49.452;11.056;2022-11-11T12:57:24;6.80;;;3.13;;
15466;SDS011;7834;49.452;11.056;2022-11-11T12:59:29;6.75;;;3.47;;
15466;SDS011;7834;49.452;11.056;2022-11-11T13:05:07;7.93;;;2.90;;
15466;SDS011;7834;49.452;11.056;2022-11-11T13:10:07;5.43;;;3.70;;
15466;SDS011;7834;49.452;11.056;2022-11-11T13:12:42;5.65;;;3.67;;
15466;SDS011;7834;49.452;11.056;2022-11-11T13:15:11;4.85;;;3.08;;
15466;SDS011;7834;49.452;11.056;2022-11-11T13:17:38;6.03;;;3.38;;
15466;SDS011;7834;49.452;11.056;2022-11-11T13:20:14;16.45;;;4.47;;
15466;SDS011;7834;49.452;11.056;2022-11-11T13:22:41;22.17;;;4.30;;
15466;SDS011;7834;49.452;11.056;2022-11-11T13:25:12;10.07;;;4.03;;
15466;SDS011;7834;49.452;11.056;2022-11-11T13:27:41;10.25;;;3.80;;
15466;SDS011;7834;49.452;11.056;2022-11-11T13:32:46;7.32;;;4.75;;
15466;SDS011;7834;49.452;11.056;2022-11-11T13:35:18;9.55;;;4.07;;
15466;SDS011;7834;49.452;11.056;2022-11-11T13:37:46;7.78;;;5.68;;
15466;SDS011;7834;49.452;11.056;2022-11-11T13:40:22;4.95;;;3.40;;
15466;SDS011;7834;49.452;11.056;2022-11-11T13:42:49;5.25;;;4.30;;
15466;SDS011;7834;49.452;11.056;2022-11-11T13:45:27;6.20;;;3.63;;
15466;SDS011;7834;49.452;11.056;2022-11-11T13:47:54;7.13;;;3.50;;
15466;SDS011;7834;49.452;11.056;2022-11-11T13:50:25;13.38;;;7.00;;
15466;SDS011;7834;49.452;11.056;2022-11-11T13:57:53;7.55;;;3.05;;
15466;SDS011;7834;49.452;11.056;2022-11-11T14:02:45;4.00;;;2.60;;
15466;SDS011;7834;49.452;11.056;2022-11-11T14:12:42;6.47;;;3.22;;
15466;SDS011;7834;49.452;11.056;2022-11-11T14:17:53;5.35;;;2.58;;
15466;SDS011;7834;49.452;11.056;2022-11-11T14:25:42;5.18;;;2.42;;
15466;SDS011;7834;49.452;11.056;2022-11-11T14:28:21;5.78;;;3.03;;
15466;SDS011;7834;49.452;11.056;2022-11-11T14:30:48;5.55;;;3.00;;
15466;SDS011;7834;49.452;11.056;2022-11-11T14:33:22;6.47;;;3.03;;
15466;SDS011;7834;49.452;11.056;2022-11-11T14:35:56;6.97;;;3.60;;
15466;SDS011;7834;49.452;11.056;2022-11-11T14:43:53;6.32;;;3.92;;
15466;SDS011;7834;49.452;11.056;2022-11-11T14:46:19;4.68;;;3.05;;
15466;SDS011;7834;49.452;11.056;2022-11-11T14:53:59;4.32;;;3.25;;
15466;SDS011;7834;49.452;11.056;2022-11-11T14:56:25;5.60;;;3.35;;
15466;SDS011;7834;49.452;11.056;2022-11-11T14:58:52;6.43;;;3.25;;
15466;SDS011;7834;49.452;11.056;2022-11-11T15:01:19;18.13;;;4.20;;
15466;SDS011;7834;49.452;11.056;2022-11-11T15:03:49;8.43;;;4.13;;
15466;SDS011;7834;49.452;11.056;2022-11-11T15:09:07;7.13;;;3.42;;
15466;SDS011;7834;49.452;11.056;2022-11-11T15:24:20;5.53;;;4.40;;
15466;SDS011;7834;49.452;11.056;2022-11-11T15:27:03;6.50;;;4.00;;
15466;SDS011;7834;49.452;11.056;2022-11-11T15:32:25;6.95;;;5.03;;
15466;SDS011;7834;49.452;11.056;2022-11-11T15:34:56;11.13;;;5.32;;
15466;SDS011;7834;49.452;11.056;2022-11-11T15:37:25;14.07;;;4.72;;
15466;SDS011;7834;49.452;11.056;2022-11-11T15:39:52;11.25;;;4.75;;
15466;SDS011;7834;49.452;11.056;2022-11-11T15:42:35;6.28;;;4.43;;
15466;SDS011;7834;49.452;11.056;2022-11-11T15:45:13;7.50;;;4.50;;
15466;SDS011;7834;49.452;11.056;2022-11-11T15:47:45;6.22;;;4.70;;
15466;SDS011;7834;49.452;11.056;2022-11-11T15:50:28;8.20;;;4.65;;
15466;SDS011;7834;49.452;11.056;2022-11-11T15:52:55;6.70;;;4.35;;
15466;SDS011;7834;49.452;11.056;2022-11-11T15:55:25;8.52;;;5.50;;
15466;SDS011;7834;49.452;11.056;2022-11-11T15:57:51;8.35;;;5.85;;
15466;SDS011;7834;49.452;11.056;2022-11-11T16:02:50;9.25;;;5.82;;
15466;SDS011;7834;49.452;11.056;2022-11-11T16:05:23;8.73;;;5.57;;
15466;SDS011;7834;49.452;11.056;2022-11-11T16:07:51;8.65;;;6.00;;
15466;SDS011;7834;49.452;11.056;2022-11-11T16:10:25;15.90;;;5.80;;
15466;SDS011;7834;49.452;11.056;2022-11-11T16:12:54;8.60;;;6.18;;
15466;SDS011;7834;49.452;11.056;2022-11-11T16:15:36;10.23;;;6.25;;
15466;SDS011;7834;49.452;11.056;2022-11-11T16:18:06;10.82;;;6.45;;
15466;SDS011;7834;49.452;11.056;2022-11-11T16:20:35;11.30;;;8.20;;
15466;SDS011;7834;49.452;11.056;2022-11-11T16:23:03;16.25;;;10.10;;
15466;SDS011;7834;49.452;11.056;2022-11-11T16:25:31;13.48;;;9.30;;
15466;SDS011;7834;49.452;11.056;2022-11-11T16:27:58;11.43;;;8.05;;
15466;SDS011;7834;49.452;11.056;2022-11-11T16:32:54;11.65;;;7.72;;
15466;SDS011;7834;49.452;11.056;2022-11-11T16:35:22;14.70;;;8.70;;
15466;SDS011;7834;49.452;11.056;2022-11-11T16:37:49;11.73;;;8.38;;
15466;SDS011;7834;49.452;11.056;2022-11-11T16:45:45;13.80;;;9.45;;
15466;SDS011;7834;49.452;11.056;2022-11-11T16:48:32;13.60;;;9.80;;
15466;SDS011;7834;49.452;11.056;2022-11-11T16:51:03;13.52;;;9.15;;
15466;SDS011;7834;49.452;11.056;2022-11-11T16:53:32;12.68;;;8.60;;
15466;SDS011;7834;49.452;11.056;2022-11-11T16:55:59;15.48;;;10.20;;
15466;SDS011;7834;49.452;11.056;2022-11-11T16:58:26;16.30;;;9.63;;
15466;SDS011;7834;49.452;11.056;2022-11-11T17:00:58;15.73;;;10.15;;
15466;SDS011;7834;49.452;11.056;2022-11-11T17:03:25;14.25;;;10.80;;
15466;SDS011;7834;49.452;11.056;2022-11-11T17:05:55;15.23;;;9.80;;
15466;SDS011;7834;49.452;11.056;2022-11-11T17:10:57;13.82;;;9.80;;
15466;SDS011;7834;49.452;11.056;2022-11-11T17:13:24;20.23;;;11.25;;
15466;SDS011;7834;49.452;11.056;2022-11-11T17:15:51;14.05;;;9.60;;